sensor_id;sensor_type;location;lat;lon;timestamp;P1;durP1;ratioP1;P2;durP2;ratioP2
75737;SDS011;64356;45.638;13.764;2022-10-16T00:01:34;46.47;;;36.70;;
75737;SDS011;64356;45.638;13.764;2022-10-16T00:04:00;45.50;;;36.83;;
75737;SDS011;64356;45.638;13.764;2022-10-16T00:06:26;43.95;;;36.20;;
75737;SDS011;64356;45.638;13.764;2022-10-16T00:08:53;42.20;;;35.35;;
75737;SDS011;64356;45.638;13.764;2022-10-16T00:11:27;42.05;;;35.47;;
75737;SDS011;64356;45.638;13.764;2022-10-16T00:13:56;42.70;;;35.45;;
75737;SDS011;64356;45.638;13.764;2022-10-16T00:16:24;44.08;;;35.38;;
75737;SDS011;64356;45.638;13.764;2022-10-16T00:18:50;40.88;;;34.38;;
75737;SDS011;64356;45.638;13.764;2022-10-16T00:21:17;42.47;;;35.40;;
75737;SDS011;64356;45.638;13.764;2022-10-16T00:23:45;41.45;;;36.42;;
75737;SDS011;64356;45.638;13.764;2022-10-16T00:26:13;49.58;;;35.30;;
75737;SDS011;64356;45.638;13.764;2022-10-16T00:28:40;41.65;;;34.60;;
75737;SDS011;64356;45.638;13.764;2022-10-16T00:31:08;41.60;;;35.58;;
75737;SDS011;64356;45.638;13.764;2022-10-16T00:33:35;38.35;;;33.55;;
75737;SDS011;64356;45.638;13.764;2022-10-16T00:36:03;38.33;;;34.13;;
75737;SDS011;64356;45.638;13.764;2022-10-16T00:38:29;37.67;;;33.42;;
75737;SDS011;64356;45.638;13.764;2022-10-16T00:40:55;43.97;;;34.25;;
75737;SDS011;64356;45.638;13.764;2022-10-16T00:48:51;38.72;;;32.83;;
75737;SDS011;64356;45.638;13.764;2022-10-16T00:51:25;41.28;;;33.25;;
75737;SDS011;64356;45.638;13.764;2022-10-16T00:53:57;38.72;;;32.67;;
75737;SDS011;64356;45.638;13.764;2022-10-16T00:56:23;39.47;;;33.42;;
75737;SDS011;64356;45.638;13.764;2022-10-16T00:58:48;40.13;;;33.17;;
75737;SDS011;64356;45.638;13.764;2022-10-16T01:01:14;40.80;;;33.80;;
75737;SDS011;64356;45.638;13.764;2022-10-16T01:03:40;38.65;;;33.15;;
75737;SDS011;64356;45.638;13.764;2022-10-16T01:08:52;37.30;;;32.78;;
75737;SDS011;64356;45.638;13.764;2022-10-16T01:11:30;36.72;;;32.47;;
75737;SDS011;64356;45.638;13.764;2022-10-16T01:14:33;39.42;;;34.13;;
75737;SDS011;64356;45.638;13.764;2022-10-16T01:17:06;44.90;;;32.50;;
75737;SDS011;64356;45.638;13.764;2022-10-16T01:28:11;35.25;;;30.83;;
75737;SDS011;64356;45.638;13.764;2022-10-16T01:30:40;38.40;;;31.83;;
75737;SDS011;64356;45.638;13.764;2022-10-16T01:33:10;36.88;;;31.25;;
75737;SDS011;64356;45.638;13.764;2022-10-16T01:35:46;37.75;;;31.83;;
75737;SDS011;64356;45.638;13.764;2022-10-16T01:38:19;37.13;;;31.42;;
75737;SDS011;64356;45.638;13.764;2022-10-16T01:40:51;36.00;;;30.80;;
75737;SDS011;64356;45.638;13.764;2022-10-16T01:43:23;33.35;;;29.73;;
75737;SDS011;64356;45.638;13.764;2022-10-16T01:45:59;45.65;;;32.13;;
75737;SDS011;64356;45.638;13.764;2022-10-16T01:48:26;37.20;;;30.08;;
75737;SDS011;64356;45.638;13.764;2022-10-16T01:50:54;36.05;;;30.33;;
75737;SDS011;64356;45.638;13.764;2022-10-16T01:53:31;38.53;;;30.85;;
75737;SDS011;64356;45.638;13.764;2022-10-16T01:55:58;34.20;;;29.45;;
75737;SDS011;64356;45.638;13.764;2022-10-16T01:58:25;36.28;;;29.88;;
75737;SDS011;64356;45.638;13.764;2022-10-16T02:00:55;35.20;;;29.55;;
75737;SDS011;64356;45.638;13.764;2022-10-16T02:03:21;36.80;;;30.70;;
75737;SDS011;64356;45.638;13.764;2022-10-16T02:05:50;37.22;;;30.85;;
75737;SDS011;64356;45.638;13.764;2022-10-16T02:08:19;40.00;;;31.27;;
75737;SDS011;64356;45.638;13.764;2022-10-16T02:10:46;36.78;;;29.05;;
75737;SDS011;64356;45.638;13.764;2022-10-16T02:13:15;34.65;;;29.90;;
75737;SDS011;64356;45.638;13.764;2022-10-16T02:15:48;34.53;;;30.45;;
75737;SDS011;64356;45.638;13.764;2022-10-16T02:18:14;35.20;;;30.17;;
75737;SDS011;64356;45.638;13.764;2022-10-16T02:20:43;33.30;;;29.33;;
75737;SDS011;64356;45.638;13.764;2022-10-16T02:23:17;34.67;;;30.02;;
75737;SDS011;64356;45.638;13.764;2022-10-16T02:25:59;35.92;;;28.70;;
75737;SDS011;64356;45.638;13.764;2022-10-16T02:28:40;32.00;;;28.52;;
75737;SDS011;64356;45.638;13.764;2022-10-16T02:33:38;35.17;;;28.65;;
75737;SDS011;64356;45.638;13.764;2022-10-16T02:36:07;32.25;;;28.58;;
75737;SDS011;64356;45.638;13.764;2022-10-16T02:38:33;33.58;;;28.95;;
75737;SDS011;64356;45.638;13.764;2022-10-16T02:40:59;32.33;;;27.95;;
75737;SDS011;64356;45.638;13.764;2022-10-16T02:43:25;31.00;;;27.45;;
75737;SDS011;64356;45.638;13.764;2022-10-16T02:45:51;33.80;;;29.83;;
75737;SDS011;64356;45.638;13.764;2022-10-16T02:48:17;35.40;;;28.35;;
75737;SDS011;64356;45.638;13.764;2022-10-16T02:50:43;33.95;;;29.27;;
75737;SDS011;64356;45.638;13.764;2022-10-16T02:53:08;31.33;;;27.95;;
75737;SDS011;64356;45.638;13.764;2022-10-16T02:55:34;33.65;;;27.70;;
75737;SDS011;64356;45.638;13.764;2022-10-16T02:58:00;32.28;;;28.77;;
75737;SDS011;64356;45.638;13.764;2022-10-16T03:00:25;31.15;;;26.88;;
75737;SDS011;64356;45.638;13.764;2022-10-16T03:02:51;30.77;;;27.48;;
75737;SDS011;64356;45.638;13.764;2022-10-16T03:05:16;31.25;;;27.77;;
75737;SDS011;64356;45.638;13.764;2022-10-16T03:07:42;34.03;;;27.83;;
75737;SDS011;64356;45.638;13.764;2022-10-16T03:10:08;33.15;;;27.13;;
75737;SDS011;64356;45.638;13.764;2022-10-16T03:12:34;33.28;;;29.02;;
75737;SDS011;64356;45.638;13.764;2022-10-16T03:14:59;34.10;;;27.55;;
75737;SDS011;64356;45.638;13.764;2022-10-16T03:17:25;34.25;;;27.65;;
75737;SDS011;64356;45.638;13.764;2022-10-16T03:19:51;31.35;;;27.75;;
75737;SDS011;64356;45.638;13.764;2022-10-16T03:22:17;29.83;;;26.40;;
75737;SDS011;64356;45.638;13.764;2022-10-16T03:24:43;33.10;;;27.70;;
75737;SDS011;64356;45.638;13.764;2022-10-16T03:27:08;34.78;;;28.83;;
75737;SDS011;64356;45.638;13.764;2022-10-16T03:29:34;32.42;;;28.65;;
75737;SDS011;64356;45.638;13.764;2022-10-16T03:32:00;32.40;;;28.38;;
75737;SDS011;64356;45.638;13.764;2022-10-16T03:34:26;33.42;;;28.58;;
75737;SDS011;64356;45.638;13.764;2022-10-16T03:36:51;30.40;;;26.70;;
75737;SDS011;64356;45.638;13.764;2022-10-16T03:39:19;32.28;;;28.17;;
75737;SDS011;64356;45.638;13.764;2022-10-16T03:41:44;33.97;;;27.13;;
75737;SDS011;64356;45.638;13.764;2022-10-16T03:44:11;32.08;;;27.77;;
75737;SDS011;64356;45.638;13.764;2022-10-16T03:46:37;35.60;;;27.25;;
75737;SDS011;64356;45.638;13.764;2022-10-16T03:49:03;32.63;;;28.23;;
75737;SDS011;64356;45.638;13.764;2022-10-16T03:51:28;34.13;;;26.70;;
75737;SDS011;64356;45.638;13.764;2022-10-16T03:53:54;31.58;;;28.17;;
75737;SDS011;64356;45.638;13.764;2022-10-16T03:56:19;33.00;;;28.10;;
75737;SDS011;64356;45.638;13.764;2022-10-16T03:58:45;30.00;;;26.80;;
75737;SDS011;64356;45.638;13.764;2022-10-16T04:01:11;31.02;;;26.40;;
75737;SDS011;64356;45.638;13.764;2022-10-16T04:03:36;32.30;;;28.67;;
75737;SDS011;64356;45.638;13.764;2022-10-16T04:06:02;32.22;;;27.08;;
75737;SDS011;64356;45.638;13.764;2022-10-16T04:08:28;32.90;;;27.13;;
75737;SDS011;64356;45.638;13.764;2022-10-16T04:10:54;34.20;;;27.55;;
75737;SDS011;64356;45.638;13.764;2022-10-16T04:13:19;31.85;;;27.50;;
75737;SDS011;64356;45.638;13.764;2022-10-16T04:15:45;31.15;;;27.08;;
75737;SDS011;64356;45.638;13.764;2022-10-16T04:18:11;30.80;;;27.40;;
75737;SDS011;64356;45.638;13.764;2022-10-16T04:20:37;32.63;;;27.17;;
75737;SDS011;64356;45.638;13.764;2022-10-16T04:23:03;34.22;;;29.30;;
75737;SDS011;64356;45.638;13.764;2022-10-16T04:25:29;28.92;;;25.67;;
75737;SDS011;64356;45.638;13.764;2022-10-16T04:27:55;30.05;;;26.50;;
75737;SDS011;64356;45.638;13.764;2022-10-16T04:30:21;31.15;;;27.83;;
75737;SDS011;64356;45.638;13.764;2022-10-16T04:32:51;32.90;;;27.67;;
75737;SDS011;64356;45.638;13.764;2022-10-16T04:35:18;30.13;;;25.98;;
75737;SDS011;64356;45.638;13.764;2022-10-16T04:37:44;31.63;;;27.83;;
75737;SDS011;64356;45.638;13.764;2022-10-16T04:40:10;30.30;;;26.70;;
75737;SDS011;64356;45.638;13.764;2022-10-16T04:42:36;36.47;;;27.30;;
75737;SDS011;64356;45.638;13.764;2022-10-16T04:45:02;32.55;;;26.33;;
75737;SDS011;64356;45.638;13.764;2022-10-16T04:47:28;29.70;;;26.50;;
75737;SDS011;64356;45.638;13.764;2022-10-16T04:49:54;32.35;;;27.70;;
75737;SDS011;64356;45.638;13.764;2022-10-16T04:52:19;31.40;;;27.50;;
75737;SDS011;64356;45.638;13.764;2022-10-16T04:54:46;33.05;;;27.40;;
75737;SDS011;64356;45.638;13.764;2022-10-16T04:57:12;29.60;;;26.40;;
75737;SDS011;64356;45.638;13.764;2022-10-16T04:59:37;33.20;;;27.98;;
75737;SDS011;64356;45.638;13.764;2022-10-16T05:02:03;31.02;;;27.70;;
75737;SDS011;64356;45.638;13.764;2022-10-16T05:04:29;31.65;;;26.38;;
75737;SDS011;64356;45.638;13.764;2022-10-16T05:06:54;30.10;;;26.77;;
75737;SDS011;64356;45.638;13.764;2022-10-16T05:09:20;31.70;;;26.08;;
75737;SDS011;64356;45.638;13.764;2022-10-16T05:11:46;30.90;;;27.58;;
75737;SDS011;64356;45.638;13.764;2022-10-16T05:14:11;32.05;;;28.48;;
75737;SDS011;64356;45.638;13.764;2022-10-16T05:16:37;30.80;;;27.02;;
75737;SDS011;64356;45.638;13.764;2022-10-16T05:19:03;29.08;;;25.98;;
75737;SDS011;64356;45.638;13.764;2022-10-16T05:21:28;30.50;;;25.25;;
75737;SDS011;64356;45.638;13.764;2022-10-16T05:23:54;33.45;;;27.95;;
75737;SDS011;64356;45.638;13.764;2022-10-16T05:26:20;39.17;;;27.83;;
75737;SDS011;64356;45.638;13.764;2022-10-16T05:28:46;30.42;;;26.38;;
75737;SDS011;64356;45.638;13.764;2022-10-16T05:31:12;31.77;;;26.77;;
75737;SDS011;64356;45.638;13.764;2022-10-16T05:33:37;34.15;;;27.83;;
75737;SDS011;64356;45.638;13.764;2022-10-16T05:36:04;30.83;;;27.25;;
75737;SDS011;64356;45.638;13.764;2022-10-16T05:38:32;30.23;;;27.02;;
75737;SDS011;64356;45.638;13.764;2022-10-16T05:40:58;29.27;;;25.55;;
75737;SDS011;64356;45.638;13.764;2022-10-16T05:43:24;30.08;;;26.52;;
75737;SDS011;64356;45.638;13.764;2022-10-16T05:45:56;31.98;;;26.35;;
75737;SDS011;64356;45.638;13.764;2022-10-16T05:48:23;29.13;;;26.02;;
75737;SDS011;64356;45.638;13.764;2022-10-16T05:50:56;29.40;;;25.85;;
75737;SDS011;64356;45.638;13.764;2022-10-16T05:53:22;27.65;;;24.20;;
75737;SDS011;64356;45.638;13.764;2022-10-16T05:55:53;28.38;;;25.38;;
75737;SDS011;64356;45.638;13.764;2022-10-16T05:58:20;33.63;;;27.13;;
75737;SDS011;64356;45.638;13.764;2022-10-16T06:00:56;30.10;;;25.65;;
75737;SDS011;64356;45.638;13.764;2022-10-16T06:03:23;31.98;;;26.23;;
75737;SDS011;64356;45.638;13.764;2022-10-16T06:05:49;37.55;;;28.98;;
75737;SDS011;64356;45.638;13.764;2022-10-16T06:08:15;41.80;;;28.52;;
75737;SDS011;64356;45.638;13.764;2022-10-16T06:10:42;34.42;;;26.48;;
75737;SDS011;64356;45.638;13.764;2022-10-16T06:13:08;40.60;;;26.52;;
75737;SDS011;64356;45.638;13.764;2022-10-16T06:15:34;43.92;;;27.90;;
75737;SDS011;64356;45.638;13.764;2022-10-16T06:18:00;37.65;;;27.23;;
75737;SDS011;64356;45.638;13.764;2022-10-16T06:20:25;34.03;;;27.30;;
75737;SDS011;64356;45.638;13.764;2022-10-16T06:22:51;32.67;;;26.55;;
75737;SDS011;64356;45.638;13.764;2022-10-16T06:25:17;33.65;;;26.55;;
75737;SDS011;64356;45.638;13.764;2022-10-16T06:27:42;32.75;;;27.33;;
75737;SDS011;64356;45.638;13.764;2022-10-16T06:30:08;35.60;;;28.20;;
75737;SDS011;64356;45.638;13.764;2022-10-16T06:32:34;38.45;;;28.33;;
75737;SDS011;64356;45.638;13.764;2022-10-16T06:35:00;35.63;;;28.67;;
75737;SDS011;64356;45.638;13.764;2022-10-16T06:37:26;46.35;;;27.88;;
75737;SDS011;64356;45.638;13.764;2022-10-16T06:39:52;37.65;;;27.73;;
75737;SDS011;64356;45.638;13.764;2022-10-16T06:42:18;35.13;;;27.48;;
75737;SDS011;64356;45.638;13.764;2022-10-16T06:44:44;37.58;;;27.13;;
75737;SDS011;64356;45.638;13.764;2022-10-16T06:47:10;33.13;;;27.70;;
75737;SDS011;64356;45.638;13.764;2022-10-16T06:49:35;38.88;;;29.10;;
75737;SDS011;64356;45.638;13.764;2022-10-16T06:52:01;34.08;;;28.27;;
75737;SDS011;64356;45.638;13.764;2022-10-16T06:54:27;34.72;;;28.40;;
75737;SDS011;64356;45.638;13.764;2022-10-16T06:56:53;34.78;;;27.73;;
75737;SDS011;64356;45.638;13.764;2022-10-16T06:59:20;36.90;;;29.02;;
75737;SDS011;64356;45.638;13.764;2022-10-16T07:01:46;34.85;;;28.90;;
75737;SDS011;64356;45.638;13.764;2022-10-16T07:04:11;40.03;;;28.88;;
75737;SDS011;64356;45.638;13.764;2022-10-16T07:06:37;37.88;;;30.35;;
75737;SDS011;64356;45.638;13.764;2022-10-16T07:09:04;36.08;;;28.90;;
75737;SDS011;64356;45.638;13.764;2022-10-16T07:11:33;33.88;;;29.42;;
75737;SDS011;64356;45.638;13.764;2022-10-16T07:13:59;38.60;;;31.10;;
75737;SDS011;64356;45.638;13.764;2022-10-16T07:16:26;35.28;;;30.13;;
75737;SDS011;64356;45.638;13.764;2022-10-16T07:18:54;37.95;;;29.42;;
75737;SDS011;64356;45.638;13.764;2022-10-16T07:21:24;34.38;;;29.45;;
75737;SDS011;64356;45.638;13.764;2022-10-16T07:23:51;37.40;;;29.42;;
75737;SDS011;64356;45.638;13.764;2022-10-16T07:26:17;36.80;;;30.23;;
75737;SDS011;64356;45.638;13.764;2022-10-16T07:28:43;34.75;;;30.70;;
75737;SDS011;64356;45.638;13.764;2022-10-16T07:31:10;38.00;;;31.48;;
75737;SDS011;64356;45.638;13.764;2022-10-16T07:33:38;34.83;;;29.98;;
75737;SDS011;64356;45.638;13.764;2022-10-16T07:36:06;34.40;;;29.50;;
75737;SDS011;64356;45.638;13.764;2022-10-16T07:38:33;36.22;;;29.40;;
75737;SDS011;64356;45.638;13.764;2022-10-16T07:41:02;39.95;;;29.85;;
75737;SDS011;64356;45.638;13.764;2022-10-16T07:43:32;33.83;;;29.25;;
75737;SDS011;64356;45.638;13.764;2022-10-16T07:45:59;41.90;;;32.08;;
75737;SDS011;64356;45.638;13.764;2022-10-16T07:48:28;36.13;;;29.55;;
75737;SDS011;64356;45.638;13.764;2022-10-16T07:50:58;36.97;;;29.92;;
75737;SDS011;64356;45.638;13.764;2022-10-16T07:53:25;34.80;;;30.15;;
75737;SDS011;64356;45.638;13.764;2022-10-16T07:55:51;35.58;;;30.48;;
75737;SDS011;64356;45.638;13.764;2022-10-16T07:58:17;40.00;;;31.50;;
75737;SDS011;64356;45.638;13.764;2022-10-16T08:00:42;33.17;;;28.83;;
75737;SDS011;64356;45.638;13.764;2022-10-16T08:03:08;35.03;;;29.83;;
75737;SDS011;64356;45.638;13.764;2022-10-16T08:05:34;35.85;;;28.92;;
75737;SDS011;64356;45.638;13.764;2022-10-16T08:08:00;34.83;;;30.17;;
75737;SDS011;64356;45.638;13.764;2022-10-16T08:10:27;36.65;;;30.05;;
75737;SDS011;64356;45.638;13.764;2022-10-16T08:12:54;37.35;;;30.20;;
75737;SDS011;64356;45.638;13.764;2022-10-16T08:15:20;35.30;;;29.10;;
75737;SDS011;64356;45.638;13.764;2022-10-16T08:17:59;35.30;;;29.55;;
75737;SDS011;64356;45.638;13.764;2022-10-16T08:20:26;38.80;;;31.43;;
75737;SDS011;64356;45.638;13.764;2022-10-16T08:22:53;38.13;;;30.38;;
75737;SDS011;64356;45.638;13.764;2022-10-16T08:25:19;38.45;;;30.05;;
75737;SDS011;64356;45.638;13.764;2022-10-16T08:27:46;35.05;;;30.42;;
75737;SDS011;64356;45.638;13.764;2022-10-16T08:30:12;34.30;;;30.38;;
75737;SDS011;64356;45.638;13.764;2022-10-16T08:32:38;34.55;;;29.52;;
75737;SDS011;64356;45.638;13.764;2022-10-16T08:35:04;36.92;;;30.83;;
75737;SDS011;64356;45.638;13.764;2022-10-16T08:37:31;35.00;;;29.73;;
75737;SDS011;64356;45.638;13.764;2022-10-16T08:39:57;34.38;;;29.25;;
75737;SDS011;64356;45.638;13.764;2022-10-16T08:50:26;36.63;;;29.85;;
75737;SDS011;64356;45.638;13.764;2022-10-16T08:52:54;35.90;;;30.02;;
75737;SDS011;64356;45.638;13.764;2022-10-16T08:55:30;36.13;;;29.33;;
75737;SDS011;64356;45.638;13.764;2022-10-16T08:58:18;38.75;;;31.20;;
75737;SDS011;64356;45.638;13.764;2022-10-16T09:00:46;34.85;;;29.38;;
75737;SDS011;64356;45.638;13.764;2022-10-16T09:09:43;37.50;;;30.83;;
75737;SDS011;64356;45.638;13.764;2022-10-16T09:12:12;41.60;;;31.83;;
75737;SDS011;64356;45.638;13.764;2022-10-16T09:17:51;40.17;;;32.88;;
75737;SDS011;64356;45.638;13.764;2022-10-16T09:25:39;41.17;;;32.50;;
75737;SDS011;64356;45.638;13.764;2022-10-16T09:28:09;51.28;;;33.08;;
75737;SDS011;64356;45.638;13.764;2022-10-16T09:30:35;52.15;;;35.38;;
75737;SDS011;64356;45.638;13.764;2022-10-16T09:33:02;53.03;;;34.60;;
75737;SDS011;64356;45.638;13.764;2022-10-16T09:38:33;55.72;;;35.78;;
75737;SDS011;64356;45.638;13.764;2022-10-16T09:41:02;49.70;;;34.40;;
75737;SDS011;64356;45.638;13.764;2022-10-16T09:43:57;46.65;;;32.65;;
75737;SDS011;64356;45.638;13.764;2022-10-16T09:46:29;47.35;;;34.53;;
75737;SDS011;64356;45.638;13.764;2022-10-16T09:49:04;49.85;;;35.08;;
75737;SDS011;64356;45.638;13.764;2022-10-16T09:51:42;44.35;;;32.53;;
75737;SDS011;64356;45.638;13.764;2022-10-16T09:56:34;48.08;;;35.13;;
75737;SDS011;64356;45.638;13.764;2022-10-16T09:59:03;51.75;;;32.65;;
75737;SDS011;64356;45.638;13.764;2022-10-16T10:01:39;48.75;;;33.00;;
75737;SDS011;64356;45.638;13.764;2022-10-16T10:04:08;40.40;;;32.70;;
75737;SDS011;64356;45.638;13.764;2022-10-16T10:06:36;42.78;;;32.83;;
75737;SDS011;64356;45.638;13.764;2022-10-16T10:09:14;48.95;;;32.92;;
75737;SDS011;64356;45.638;13.764;2022-10-16T10:12:01;41.75;;;34.85;;
75737;SDS011;64356;45.638;13.764;2022-10-16T10:14:30;50.20;;;33.30;;
75737;SDS011;64356;45.638;13.764;2022-10-16T10:17:11;48.63;;;32.60;;
75737;SDS011;64356;45.638;13.764;2022-10-16T10:19:44;49.47;;;33.78;;
75737;SDS011;64356;45.638;13.764;2022-10-16T10:36:25;49.30;;;34.20;;
75737;SDS011;64356;45.638;13.764;2022-10-16T10:41:31;48.83;;;33.67;;
75737;SDS011;64356;45.638;13.764;2022-10-16T10:44:21;45.50;;;36.03;;
75737;SDS011;64356;45.638;13.764;2022-10-16T10:52:43;46.58;;;31.80;;
75737;SDS011;64356;45.638;13.764;2022-10-16T11:01:15;59.97;;;32.00;;
75737;SDS011;64356;45.638;13.764;2022-10-16T11:06:32;43.72;;;33.95;;
75737;SDS011;64356;45.638;13.764;2022-10-16T11:09:31;47.55;;;33.10;;
75737;SDS011;64356;45.638;13.764;2022-10-16T11:12:14;41.78;;;32.92;;
75737;SDS011;64356;45.638;13.764;2022-10-16T11:17:16;43.45;;;33.30;;
75737;SDS011;64356;45.638;13.764;2022-10-16T11:19:58;43.55;;;32.70;;
75737;SDS011;64356;45.638;13.764;2022-10-16T11:30:39;40.35;;;32.13;;
75737;SDS011;64356;45.638;13.764;2022-10-16T11:33:25;44.53;;;33.45;;
75737;SDS011;64356;45.638;13.764;2022-10-16T11:38:51;43.15;;;33.33;;
75737;SDS011;64356;45.638;13.764;2022-10-16T11:41:42;39.28;;;31.92;;
75737;SDS011;64356;45.638;13.764;2022-10-16T11:49:36;40.60;;;32.20;;
75737;SDS011;64356;45.638;13.764;2022-10-16T11:52:20;42.13;;;32.15;;
75737;SDS011;64356;45.638;13.764;2022-10-16T11:57:33;43.38;;;33.58;;
75737;SDS011;64356;45.638;13.764;2022-10-16T12:02:48;42.47;;;33.47;;
75737;SDS011;64356;45.638;13.764;2022-10-16T12:08:16;39.58;;;31.30;;
75737;SDS011;64356;45.638;13.764;2022-10-16T12:10:39;39.67;;;31.63;;
75737;SDS011;64356;45.638;13.764;2022-10-16T12:18:37;41.10;;;31.63;;
75737;SDS011;64356;45.638;13.764;2022-10-16T12:21:03;37.58;;;30.95;;
75737;SDS011;64356;45.638;13.764;2022-10-16T12:23:31;37.83;;;31.02;;
75737;SDS011;64356;45.638;13.764;2022-10-16T12:26:27;39.72;;;31.55;;
75737;SDS011;64356;45.638;13.764;2022-10-16T12:29:12;39.65;;;29.65;;
75737;SDS011;64356;45.638;13.764;2022-10-16T12:31:45;39.40;;;31.05;;
75737;SDS011;64356;45.638;13.764;2022-10-16T12:34:14;37.63;;;31.67;;
75737;SDS011;64356;45.638;13.764;2022-10-16T12:36:50;40.60;;;32.55;;
75737;SDS011;64356;45.638;13.764;2022-10-16T12:39:25;39.35;;;30.95;;
75737;SDS011;64356;45.638;13.764;2022-10-16T12:42:18;38.85;;;30.65;;
75737;SDS011;64356;45.638;13.764;2022-10-16T12:44:51;37.00;;;30.35;;
75737;SDS011;64356;45.638;13.764;2022-10-16T12:49:49;39.88;;;30.73;;
75737;SDS011;64356;45.638;13.764;2022-10-16T12:52:25;42.20;;;32.20;;
75737;SDS011;64356;45.638;13.764;2022-10-16T12:54:51;40.03;;;32.22;;
75737;SDS011;64356;45.638;13.764;2022-10-16T13:02:55;37.70;;;31.40;;
75737;SDS011;64356;45.638;13.764;2022-10-16T13:11:20;38.75;;;31.30;;
75737;SDS011;64356;45.638;13.764;2022-10-16T13:25:06;40.80;;;32.75;;
75737;SDS011;64356;45.638;13.764;2022-10-16T13:30:22;40.50;;;33.40;;
75737;SDS011;64356;45.638;13.764;2022-10-16T13:32:53;38.38;;;31.73;;
75737;SDS011;64356;45.638;13.764;2022-10-16T13:35:23;43.30;;;33.33;;
75737;SDS011;64356;45.638;13.764;2022-10-16T13:37:50;41.92;;;30.92;;
75737;SDS011;64356;45.638;13.764;2022-10-16T13:40:20;36.15;;;30.15;;
75737;SDS011;64356;45.638;13.764;2022-10-16T13:42:48;38.90;;;31.15;;
75737;SDS011;64356;45.638;13.764;2022-10-16T13:45:21;40.15;;;32.88;;
75737;SDS011;64356;45.638;13.764;2022-10-16T13:47:50;39.58;;;31.80;;
75737;SDS011;64356;45.638;13.764;2022-10-16T13:50:27;39.42;;;32.50;;
75737;SDS011;64356;45.638;13.764;2022-10-16T13:53:02;39.35;;;32.42;;
75737;SDS011;64356;45.638;13.764;2022-10-16T13:55:31;39.53;;;32.80;;
75737;SDS011;64356;45.638;13.764;2022-10-16T13:58:13;42.42;;;32.08;;
75737;SDS011;64356;45.638;13.764;2022-10-16T14:00:40;37.58;;;31.10;;
75737;SDS011;64356;45.638;13.764;2022-10-16T14:03:18;39.40;;;31.60;;
75737;SDS011;64356;45.638;13.764;2022-10-16T14:06:03;39.92;;;30.67;;
75737;SDS011;64356;45.638;13.764;2022-10-16T14:08:36;40.00;;;31.90;;
75737;SDS011;64356;45.638;13.764;2022-10-16T14:11:07;40.22;;;31.10;;
75737;SDS011;64356;45.638;13.764;2022-10-16T14:13:37;37.67;;;30.45;;
75737;SDS011;64356;45.638;13.764;2022-10-16T14:16:09;35.28;;;29.52;;
75737;SDS011;64356;45.638;13.764;2022-10-16T14:18:40;41.30;;;31.92;;
75737;SDS011;64356;45.638;13.764;2022-10-16T14:21:06;41.15;;;33.05;;
75737;SDS011;64356;45.638;13.764;2022-10-16T14:23:39;34.05;;;30.35;;
75737;SDS011;64356;45.638;13.764;2022-10-16T14:28:36;34.83;;;31.02;;
75737;SDS011;64356;45.638;13.764;2022-10-16T14:31:03;38.28;;;31.80;;
75737;SDS011;64356;45.638;13.764;2022-10-16T14:33:57;36.88;;;31.33;;
75737;SDS011;64356;45.638;13.764;2022-10-16T14:36:23;37.25;;;30.98;;
75737;SDS011;64356;45.638;13.764;2022-10-16T14:41:48;37.13;;;30.05;;
75737;SDS011;64356;45.638;13.764;2022-10-16T14:44:17;35.80;;;31.33;;
75737;SDS011;64356;45.638;13.764;2022-10-16T14:46:44;35.47;;;30.95;;
75737;SDS011;64356;45.638;13.764;2022-10-16T14:51:40;33.70;;;29.45;;
75737;SDS011;64356;45.638;13.764;2022-10-16T14:54:11;33.83;;;30.08;;
75737;SDS011;64356;45.638;13.764;2022-10-16T14:56:45;37.53;;;31.40;;
75737;SDS011;64356;45.638;13.764;2022-10-16T15:01:52;34.25;;;30.08;;
75737;SDS011;64356;45.638;13.764;2022-10-16T15:04:17;36.28;;;29.75;;
75737;SDS011;64356;45.638;13.764;2022-10-16T15:06:43;35.13;;;29.17;;
75737;SDS011;64356;45.638;13.764;2022-10-16T15:09:09;34.90;;;28.42;;
75737;SDS011;64356;45.638;13.764;2022-10-16T15:11:35;38.63;;;31.00;;
75737;SDS011;64356;45.638;13.764;2022-10-16T15:14:01;33.97;;;29.52;;
75737;SDS011;64356;45.638;13.764;2022-10-16T15:16:28;33.88;;;29.75;;
75737;SDS011;64356;45.638;13.764;2022-10-16T15:18:54;35.22;;;28.52;;
75737;SDS011;64356;45.638;13.764;2022-10-16T15:23:55;40.17;;;30.55;;
75737;SDS011;64356;45.638;13.764;2022-10-16T15:26:23;37.20;;;30.42;;
75737;SDS011;64356;45.638;13.764;2022-10-16T15:28:49;34.92;;;29.75;;
75737;SDS011;64356;45.638;13.764;2022-10-16T15:31:15;38.72;;;29.80;;
75737;SDS011;64356;45.638;13.764;2022-10-16T15:33:41;35.38;;;28.80;;
75737;SDS011;64356;45.638;13.764;2022-10-16T15:36:07;33.95;;;30.35;;
75737;SDS011;64356;45.638;13.764;2022-10-16T15:38:33;35.30;;;30.63;;
75737;SDS011;64356;45.638;13.764;2022-10-16T15:40:59;35.03;;;29.55;;
75737;SDS011;64356;45.638;13.764;2022-10-16T15:43:24;36.67;;;31.05;;
75737;SDS011;64356;45.638;13.764;2022-10-16T15:46:00;36.00;;;30.13;;
75737;SDS011;64356;45.638;13.764;2022-10-16T15:48:28;34.90;;;30.30;;
75737;SDS011;64356;45.638;13.764;2022-10-16T15:50:54;33.20;;;29.33;;
75737;SDS011;64356;45.638;13.764;2022-10-16T15:53:20;38.40;;;30.23;;
75737;SDS011;64356;45.638;13.764;2022-10-16T15:55:46;36.25;;;29.48;;
75737;SDS011;64356;45.638;13.764;2022-10-16T15:58:11;65.43;;;49.15;;
75737;SDS011;64356;45.638;13.764;2022-10-16T16:00:37;64.50;;;46.35;;
75737;SDS011;64356;45.638;13.764;2022-10-16T16:03:03;40.53;;;34.80;;
75737;SDS011;64356;45.638;13.764;2022-10-16T16:05:28;67.13;;;48.38;;
75737;SDS011;64356;45.638;13.764;2022-10-16T16:07:54;63.13;;;41.53;;
75737;SDS011;64356;45.638;13.764;2022-10-16T16:10:20;69.85;;;51.80;;
75737;SDS011;64356;45.638;13.764;2022-10-16T16:12:49;64.40;;;48.22;;
75737;SDS011;64356;45.638;13.764;2022-10-16T16:17:43;59.20;;;43.03;;
75737;SDS011;64356;45.638;13.764;2022-10-16T16:20:09;63.63;;;48.58;;
75737;SDS011;64356;45.638;13.764;2022-10-16T16:22:35;81.95;;;56.75;;
75737;SDS011;64356;45.638;13.764;2022-10-16T16:25:01;80.80;;;56.40;;
75737;SDS011;64356;45.638;13.764;2022-10-16T16:27:26;73.10;;;52.30;;
75737;SDS011;64356;45.638;13.764;2022-10-16T16:29:54;81.72;;;54.78;;
75737;SDS011;64356;45.638;13.764;2022-10-16T16:32:20;76.78;;;54.60;;
75737;SDS011;64356;45.638;13.764;2022-10-16T16:34:46;87.90;;;59.53;;
75737;SDS011;64356;45.638;13.764;2022-10-16T16:37:12;84.57;;;57.08;;
75737;SDS011;64356;45.638;13.764;2022-10-16T16:39:38;71.25;;;50.40;;
75737;SDS011;64356;45.638;13.764;2022-10-16T16:42:04;76.38;;;56.78;;
75737;SDS011;64356;45.638;13.764;2022-10-16T16:44:31;79.03;;;55.05;;
75737;SDS011;64356;45.638;13.764;2022-10-16T16:46:57;61.75;;;45.38;;
75737;SDS011;64356;45.638;13.764;2022-10-16T16:49:22;52.83;;;41.65;;
75737;SDS011;64356;45.638;13.764;2022-10-16T16:51:48;51.15;;;40.80;;
75737;SDS011;64356;45.638;13.764;2022-10-16T16:54:14;52.90;;;43.30;;